createdAt,value
2023-03-25T00:00:11.925Z,96678.33
2023-03-25T00:02:58.633Z,96676.95
2023-03-25T00:05:25.265Z,96680.27
2023-03-25T00:07:51.973Z,96685.63
2023-03-25T00:10:19.197Z,96689.14
2023-03-25T00:12:45.758Z,96690.25
2023-03-25T00:15:12.282Z,96685.23
2023-03-25T00:17:39.161Z,96686.00
2023-03-25T00:20:07.218Z,96689.33
2023-03-25T00:22:33.592Z,96690.97
2023-03-25T00:24:59.999Z,96682.39
2023-03-25T00:27:26.448Z,96679.05
2023-03-25T00:29:52.839Z,96680.61
2023-03-25T00:32:19.415Z,96685.09
2023-03-25T00:34:45.793Z,96686.77
2023-03-25T00:37:13.070Z,96692.34
2023-03-25T00:39:39.397Z,96693.88
2023-03-25T00:42:05.880Z,96693.55
2023-03-25T00:44:32.201Z,96692.48
2023-03-25T00:46:58.549Z,96691.98
2023-03-25T00:49:25.010Z,96692.46
2023-03-25T00:51:53.239Z,96688.36
2023-03-25T00:54:20.392Z,96693.29
2023-03-25T00:56:47.560Z,96687.34
2023-03-25T00:59:14.103Z,96688.98
2023-03-25T01:01:40.776Z,96688.67
2023-03-25T01:04:07.192Z,96682.64
2023-03-25T01:06:35.252Z,96684.80
2023-03-25T01:09:03.679Z,96686.16
2023-03-25T01:11:31.261Z,96686.31
2023-03-25T01:13:57.635Z,96685.44
2023-03-25T01:16:24.312Z,96681.08
2023-03-25T01:18:50.719Z,96684.21
2023-03-25T01:21:17.805Z,96680.98
2023-03-25T01:23:44.178Z,96683.19
2023-03-25T01:26:10.845Z,96683.70
2023-03-25T01:28:39.230Z,96686.43
2023-03-25T01:31:06.696Z,96680.39
2023-03-25T01:33:33.638Z,96680.99
2023-03-25T01:36:00.428Z,96680.06
2023-03-25T01:38:27.976Z,96677.45
2023-03-25T01:40:54.427Z,96679.17
2023-03-25T01:43:21.195Z,96677.83
2023-03-25T01:45:47.671Z,96675.08
2023-03-25T01:48:16.855Z,96677.13
2023-03-25T01:50:47.059Z,96677.08
2023-03-25T01:53:13.498Z,96674.36
2023-03-25T01:55:39.901Z,96670.08
2023-03-25T01:58:09.482Z,96668.64
2023-03-25T02:00:36.340Z,96660.48
2023-03-25T02:03:03.177Z,96669.34
2023-03-25T02:05:33.952Z,96674.36
2023-03-25T02:08:01.513Z,96675.15
2023-03-25T02:10:28.635Z,96676.81
2023-03-25T02:12:55.324Z,96669.83
2023-03-25T02:15:21.827Z,96667.88
2023-03-25T02:17:54.841Z,96668.70
2023-03-25T02:20:24.190Z,96670.05
2023-03-25T02:22:59.496Z,96667.11
2023-03-25T02:25:25.798Z,96656.79
2023-03-25T02:27:56.815Z,96656.64
2023-03-25T02:30:48.208Z,96661.96
2023-03-25T02:33:20.742Z,96667.85
2023-03-25T02:35:50.350Z,96673.14
2023-03-25T02:38:35.724Z,96677.51
2023-03-25T02:41:16.169Z,96685.73
2023-03-25T02:43:51.170Z,96689.41
2023-03-25T02:46:18.514Z,96688.50
2023-03-25T02:48:53.993Z,96681.12
2023-03-25T02:51:22.703Z,96676.17
2023-03-25T02:53:49.541Z,96678.45
2023-03-25T02:56:17.059Z,96683.89
2023-03-25T02:58:44.605Z,96683.63
2023-03-25T03:01:11.092Z,96691.23
2023-03-25T03:03:37.485Z,96692.22
2023-03-25T03:06:04.820Z,96695.80
2023-03-25T03:08:44.018Z,96698.23
2023-03-25T03:11:13.099Z,96690.76
2023-03-25T03:13:51.406Z,96691.24
2023-03-25T03:16:29.889Z,96695.80
2023-03-25T03:19:19.508Z,96704.62
2023-03-25T03:22:21.519Z,96700.60
2023-03-25T03:25:08.026Z,96700.48
2023-03-25T03:27:37.282Z,96704.80
2023-03-25T03:30:06.570Z,96709.72
2023-03-25T03:32:39.217Z,96714.02
2023-03-25T03:35:09.175Z,96712.30
2023-03-25T03:37:45.253Z,96720.88
2023-03-25T03:40:17.536Z,96721.84
2023-03-25T03:42:50.475Z,96724.48
2023-03-25T03:45:20.362Z,96731.11
2023-03-25T03:47:50.525Z,96738.69
2023-03-25T03:50:19.929Z,96737.92
2023-03-25T03:52:49.516Z,96736.72
2023-03-25T03:55:20.052Z,96734.47
2023-03-25T03:57:55.823Z,96735.98
2023-03-25T04:00:25.325Z,96735.19
2023-03-25T04:02:55.976Z,96727.02
2023-03-25T04:05:26.852Z,96734.11
2023-03-25T04:07:55.263Z,96738.40
2023-03-25T04:10:33.043Z,96739.42
2023-03-25T04:13:01.751Z,96735.98
2023-03-25T04:15:28.028Z,96737.39
2023-03-25T04:17:54.452Z,96732.95
2023-03-25T04:20:24.245Z,96731.30
2023-03-25T04:22:51.259Z,96728.75
2023-03-25T04:25:18.171Z,96730.11
2023-03-25T04:27:44.468Z,96730.95
2023-03-25T04:30:10.931Z,96729.99
2023-03-25T04:32:37.289Z,96733.33
2023-03-25T04:35:03.937Z,96732.41
2023-03-25T04:37:30.279Z,96734.91
2023-03-25T04:39:56.544Z,96731.17
2023-03-25T04:42:22.829Z,96735.84
2023-03-25T04:44:49.085Z,96734.34
2023-03-25T04:47:17.276Z,96734.88
2023-03-25T04:49:43.677Z,96734.92
2023-03-25T04:52:10.480Z,96738.72
2023-03-25T04:54:36.852Z,96745.80
2023-03-25T04:57:03.479Z,96754.05
2023-03-25T04:59:29.770Z,96762.83
2023-03-25T05:01:56.183Z,96761.83
2023-03-25T05:04:22.626Z,96770.57
2023-03-25T05:06:48.959Z,96770.30
2023-03-25T05:09:16.748Z,96768.00
2023-03-25T05:11:43.043Z,96765.21
2023-03-25T05:14:09.631Z,96766.02
2023-03-25T05:16:36.018Z,96766.32
2023-03-25T05:19:02.996Z,96764.02
2023-03-25T05:21:29.975Z,96763.88
2023-03-25T05:23:56.400Z,96764.06
2023-03-25T05:26:23.011Z,96759.67
2023-03-25T05:28:49.302Z,96765.41
2023-03-25T05:31:15.700Z,96767.45
2023-03-25T05:33:41.999Z,96770.39
2023-03-25T05:36:09.337Z,96773.51
2023-03-25T05:38:36.015Z,96779.02
2023-03-25T05:41:02.275Z,96779.08
2023-03-25T05:43:28.530Z,96779.45
2023-03-25T05:45:55.020Z,96780.91
2023-03-25T05:48:21.564Z,96780.61
2023-03-25T05:50:47.861Z,96781.71
2023-03-25T05:53:14.282Z,96785.63
2023-03-25T05:55:41.190Z,96786.02
2023-03-25T05:58:07.540Z,96794.77
2023-03-25T06:00:34.958Z,96798.46
2023-03-25T06:03:02.539Z,96798.77
2023-03-25T06:05:28.981Z,96796.33
2023-03-25T06:07:55.334Z,96786.98
2023-03-25T06:10:22.047Z,96779.24
2023-03-25T06:12:48.565Z,96780.41
2023-03-25T06:15:16.200Z,96780.24
2023-03-25T06:17:43.263Z,96785.13
2023-03-25T06:20:10.352Z,96795.08
2023-03-25T06:22:38.042Z,96802.43
2023-03-25T06:25:04.564Z,96803.50
2023-03-25T06:27:30.994Z,96802.34
2023-03-25T06:29:57.317Z,96801.91
2023-03-25T06:32:23.666Z,96805.66
2023-03-25T06:34:50.074Z,96808.61
2023-03-25T06:37:16.535Z,96810.50
2023-03-25T06:39:42.954Z,96811.42
2023-03-25T06:42:15.213Z,96809.90
2023-03-25T06:44:51.284Z,96809.80
2023-03-25T06:47:27.632Z,96811.22
2023-03-25T06:49:54.089Z,96808.39
2023-03-25T06:52:20.366Z,96809.55
2023-03-25T06:54:46.719Z,96803.45
2023-03-25T06:57:13.251Z,96808.66
2023-03-25T06:59:39.621Z,96809.96
2023-03-25T07:02:06.360Z,96803.19
2023-03-25T07:04:32.845Z,96804.33
2023-03-25T07:06:59.241Z,96801.96
2023-03-25T07:09:25.618Z,96804.67
2023-03-25T07:11:52.117Z,96802.13
2023-03-25T07:14:18.599Z,96805.02
2023-03-25T07:16:44.984Z,96807.09
2023-03-25T07:19:11.490Z,96797.98
2023-03-25T07:21:37.836Z,96799.96
2023-03-25T07:24:04.238Z,96798.92
2023-03-25T07:26:30.610Z,96800.00
2023-03-25T07:28:57.059Z,96793.77
2023-03-25T07:31:23.439Z,96788.54
2023-03-25T07:33:49.742Z,96783.10
2023-03-25T07:36:16.550Z,96777.60
2023-03-25T07:38:43.305Z,96777.23
2023-03-25T07:41:10.736Z,96776.13
2023-03-25T07:43:38.913Z,96775.20
2023-03-25T07:46:31.761Z,96774.27
2023-03-25T07:48:58.155Z,96769.02
2023-03-25T07:51:24.464Z,96763.94
2023-03-25T07:53:51.079Z,96762.13
2023-03-25T07:56:17.549Z,96762.85
2023-03-25T07:58:43.943Z,96757.33
2023-03-25T08:01:10.626Z,96754.50
2023-03-25T08:03:37.111Z,96755.63
2023-03-25T08:06:03.570Z,96746.65
2023-03-25T08:08:30.280Z,96745.40
2023-03-25T08:10:56.776Z,96748.40
2023-03-25T08:13:23.227Z,96747.48
2023-03-25T08:15:50.404Z,96751.57
2023-03-25T08:18:17.086Z,96753.42
2023-03-25T08:20:43.412Z,96756.40
2023-03-25T08:23:10.822Z,96751.09
2023-03-25T08:25:38.439Z,96749.42
2023-03-25T08:28:04.823Z,96741.76
2023-03-25T08:30:35.913Z,96741.10
2023-03-25T08:33:02.561Z,96740.89
2023-03-25T08:35:28.978Z,96744.71
2023-03-25T08:37:55.393Z,96743.37
2023-03-25T08:40:21.699Z,96740.98
2023-03-25T08:42:47.997Z,96737.81
2023-03-25T08:45:15.837Z,96738.07
2023-03-25T08:47:43.014Z,96731.92
2023-03-25T08:50:09.506Z,96740.60
2023-03-25T08:52:35.788Z,96742.46
2023-03-25T08:55:02.596Z,96736.38
2023-03-25T08:57:28.891Z,96735.29
2023-03-25T08:59:55.464Z,96736.52
2023-03-25T09:02:22.139Z,96737.50
2023-03-25T09:04:48.546Z,96735.68
2023-03-25T09:07:15.020Z,96736.27
2023-03-25T09:09:41.378Z,96734.33
2023-03-25T09:12:07.956Z,96738.77
2023-03-25T09:14:34.905Z,96736.53
2023-03-25T09:17:01.275Z,96731.85
2023-03-25T09:19:27.685Z,96729.90
2023-03-25T09:21:54.572Z,96731.90
2023-03-25T09:24:20.878Z,96729.42
2023-03-25T09:26:47.230Z,96728.08
2023-03-25T09:29:13.596Z,96725.52
2023-03-25T09:31:39.928Z,96724.23
2023-03-25T09:34:07.067Z,96718.48
2023-03-25T09:36:33.432Z,96719.77
2023-03-25T09:38:59.740Z,96718.32
2023-03-25T09:41:26.074Z,96717.43
2023-03-25T09:43:55.308Z,96724.30
2023-03-25T09:46:21.997Z,96723.33
2023-03-25T09:48:49.151Z,96725.23
2023-03-25T09:51:21.447Z,96726.55
2023-03-25T09:53:53.738Z,96716.73
2023-03-25T09:56:22.326Z,96715.60
2023-03-25T09:58:53.587Z,96713.92
2023-03-25T10:01:39.173Z,96704.40
2023-03-25T10:04:05.515Z,96704.35
2023-03-25T10:06:37.047Z,96705.58
2023-03-25T10:09:12.717Z,96703.04
2023-03-25T10:11:48.415Z,96689.05
2023-03-25T10:14:19.295Z,96690.02
2023-03-25T10:17:12.653Z,96677.45
2023-03-25T10:19:51.114Z,96674.47
2023-03-25T10:22:21.666Z,96674.04
2023-03-25T10:24:50.650Z,96671.69
2023-03-25T10:27:23.127Z,96667.54
2023-03-25T10:29:53.301Z,96665.38
2023-03-25T10:32:36.930Z,96670.63
2023-03-25T10:35:05.243Z,96669.53
2023-03-25T10:37:33.562Z,96677.02
2023-03-25T10:40:10.299Z,96677.67
2023-03-25T10:42:39.122Z,96684.14
2023-03-25T10:45:13.675Z,96690.13
2023-03-25T10:47:42.273Z,96696.46
2023-03-25T10:50:13.893Z,96704.89
2023-03-25T10:52:40.638Z,96700.42
2023-03-25T10:55:17.447Z,96703.30
2023-03-25T10:57:44.068Z,96712.37
2023-03-25T11:00:15.158Z,96711.81
2023-03-25T11:02:41.800Z,96714.23
2023-03-25T11:05:08.584Z,96715.61
2023-03-25T11:07:47.464Z,96712.95
2023-03-25T11:10:16.807Z,96716.48
2023-03-25T11:12:43.624Z,96721.09
2023-03-25T11:15:14.687Z,96722.83
2023-03-25T11:17:41.897Z,96722.10
2023-03-25T11:20:16.029Z,96711.34
2023-03-25T11:22:46.393Z,96696.17
2023-03-25T11:25:18.699Z,96700.55
2023-03-25T11:27:49.243Z,96696.91
2023-03-25T11:30:17.714Z,96695.59
2023-03-25T11:32:44.170Z,96692.41
2023-03-25T11:35:15.225Z,96677.91
2023-03-25T11:37:46.577Z,96665.48
2023-03-25T11:40:14.616Z,96663.11
2023-03-25T11:42:42.849Z,96663.50
2023-03-25T11:45:18.329Z,96661.23
2023-03-25T11:47:44.959Z,96657.65
2023-03-25T11:50:25.689Z,96651.27
2023-03-25T11:52:57.384Z,96647.64
2023-03-25T11:55:41.028Z,96645.33
2023-03-25T11:58:13.422Z,96645.80
2023-03-25T12:00:40.881Z,96641.29
2023-03-25T12:03:13.790Z,96635.13
2023-03-25T12:05:40.934Z,96631.25
2023-03-25T12:08:17.595Z,96630.80
2023-03-25T12:10:43.929Z,96625.76
2023-03-25T12:13:20.828Z,96621.76
2023-03-25T12:15:51.117Z,96621.83
2023-03-25T12:18:31.092Z,96618.80
2023-03-25T12:20:58.134Z,96617.64
2023-03-25T12:23:35.882Z,96622.24
2023-03-25T12:26:02.248Z,96618.45
2023-03-25T12:28:38.250Z,96615.23
2023-03-25T12:31:07.769Z,96612.58
2023-03-25T12:33:39.609Z,96608.67
2023-03-25T12:36:39.814Z,96610.48
2023-03-25T12:39:32.253Z,96608.27
2023-03-25T12:42:17.712Z,96611.73
2023-03-25T12:44:46.941Z,96617.48
2023-03-25T12:47:13.196Z,96621.48
2023-03-25T12:49:47.774Z,96626.08
2023-03-25T12:52:23.378Z,96636.15
2023-03-25T12:54:56.120Z,96641.14
2023-03-25T12:57:38.105Z,96643.26
2023-03-25T13:00:20.921Z,96635.80
2023-03-25T13:03:01.029Z,96634.37
2023-03-25T13:05:31.078Z,96634.34
2023-03-25T13:08:00.297Z,96638.07
2023-03-25T13:10:33.023Z,96631.58
2023-03-25T13:13:00.921Z,96635.58
2023-03-25T13:15:32.174Z,96633.79
2023-03-25T13:18:17.438Z,96637.89
2023-03-25T13:20:50.707Z,96639.77
2023-03-25T13:23:19.689Z,96637.00
2023-03-25T13:25:58.639Z,96635.33
2023-03-25T13:28:35.653Z,96630.23
2023-03-25T13:31:02.468Z,96626.75
2023-03-25T13:33:31.546Z,96626.14
2023-03-25T13:36:08.065Z,96624.11
2023-03-25T13:38:40.195Z,96621.80
2023-03-25T13:41:33.321Z,96610.44
2023-03-25T13:44:07.231Z,96611.23
2023-03-25T13:46:33.984Z,96605.57
2023-03-25T13:49:12.485Z,96605.80
2023-03-25T13:51:39.754Z,96602.58
2023-03-25T13:54:12.860Z,96604.80
2023-03-25T13:56:48.601Z,96604.47
2023-03-25T13:59:33.698Z,96599.82
2023-03-25T14:02:00.698Z,96606.77
2023-03-25T14:04:27.190Z,96601.15
2023-03-25T14:07:03.589Z,96603.36
2023-03-25T14:09:48.800Z,96610.17
2023-03-25T14:12:18.387Z,96602.84
2023-03-25T14:14:47.819Z,96607.80
2023-03-25T14:17:15.831Z,96606.25
2023-03-25T14:19:44.572Z,96599.64
2023-03-25T14:22:16.418Z,96599.91
2023-03-25T14:24:43.509Z,96602.05
2023-03-25T14:27:16.411Z,96604.11
2023-03-25T14:29:51.799Z,96607.13
2023-03-25T14:32:18.677Z,96606.86
2023-03-25T14:34:45.888Z,96608.88
2023-03-25T14:37:21.855Z,96608.91
2023-03-25T14:39:48.254Z,96608.45
2023-03-25T14:42:20.656Z,96601.52
2023-03-25T14:44:48.757Z,96595.66
2023-03-25T14:47:15.104Z,96592.08
2023-03-25T14:50:02.847Z,96590.79
2023-03-25T14:52:32.084Z,96588.69
2023-03-25T14:55:00.539Z,96589.89
2023-03-25T14:57:29.329Z,96591.94
2023-03-25T14:59:59.902Z,96592.71
2023-03-25T15:02:27.770Z,96591.73
2023-03-25T15:04:54.114Z,96589.09
2023-03-25T15:07:38.663Z,96594.98
2023-03-25T15:10:05.916Z,96595.99
2023-03-25T15:12:36.663Z,96594.36
2023-03-25T15:15:07.299Z,96601.68
2023-03-25T15:17:42.771Z,96601.71
2023-03-25T15:20:09.863Z,96603.11
2023-03-25T15:22:36.600Z,96608.73
2023-03-25T15:25:10.323Z,96609.81
2023-03-25T15:28:09.375Z,96613.96
2023-03-25T15:30:39.046Z,96617.58
2023-03-25T15:33:16.308Z,96619.27
2023-03-25T15:35:45.799Z,96620.17
2023-03-25T15:38:18.233Z,96629.12
2023-03-25T15:41:03.357Z,96629.29
2023-03-25T15:43:57.863Z,96634.31
2023-03-25T15:46:33.390Z,96650.53
2023-03-25T15:49:35.305Z,96660.90
2023-03-25T15:52:07.517Z,96654.60
2023-03-25T15:54:37.062Z,96657.56
2023-03-25T15:57:06.338Z,96662.89
2023-03-25T15:59:51.117Z,96665.42
2023-03-25T16:02:37.834Z,96674.50
2023-03-25T16:05:05.335Z,96677.14
2023-03-25T16:07:33.263Z,96675.69
2023-03-25T16:10:17.979Z,96678.13
2023-03-25T16:12:49.177Z,96676.64
2023-03-25T16:15:16.366Z,96679.84
2023-03-25T16:17:45.690Z,96677.10
2023-03-25T16:20:13.906Z,96674.40
2023-03-25T16:22:41.563Z,96674.98
2023-03-25T16:25:16.905Z,96674.36
2023-03-25T16:27:44.360Z,96674.41
2023-03-25T16:30:23.086Z,96675.21
2023-03-25T16:32:49.745Z,96678.45
2023-03-25T16:35:19.216Z,96676.00
2023-03-25T16:37:45.583Z,96679.27
2023-03-25T16:40:14.111Z,96679.16
2023-03-25T16:42:40.489Z,96678.68
2023-03-25T16:45:07.646Z,96682.08
2023-03-25T16:47:34.344Z,96686.58
2023-03-25T16:50:01.956Z,96682.84
2023-03-25T16:52:31.241Z,96685.90
2023-03-25T16:54:57.969Z,96683.27
2023-03-25T16:57:28.985Z,96684.48
2023-03-25T16:59:55.763Z,96685.30
2023-03-25T17:02:24.080Z,96688.18
2023-03-25T17:04:50.624Z,96690.02
2023-03-25T17:07:18.355Z,96690.48
2023-03-25T17:09:49.001Z,96695.55
2023-03-25T17:12:19.661Z,96701.50
2023-03-25T17:14:46.972Z,96703.98
2023-03-25T17:17:26.606Z,96703.92
2023-03-25T17:19:53.657Z,96709.59
2023-03-25T17:22:24.927Z,96710.43
2023-03-25T17:24:53.961Z,96709.06
2023-03-25T17:27:25.368Z,96712.54
2023-03-25T17:29:55.934Z,96712.70
2023-03-25T17:32:22.869Z,96711.95
2023-03-25T17:34:57.603Z,96713.42
2023-03-25T17:37:25.176Z,96714.04
2023-03-25T17:39:52.232Z,96722.58
2023-03-25T17:42:23.393Z,96722.78
2023-03-25T17:44:50.167Z,96722.82
2023-03-25T17:47:17.507Z,96722.22
2023-03-25T17:49:44.023Z,96727.47
2023-03-25T17:52:35.824Z,96725.61
2023-03-25T17:55:02.323Z,96727.41
2023-03-25T17:57:29.806Z,96726.53
2023-03-25T17:59:56.181Z,96722.77
2023-03-25T18:02:23.028Z,96717.80
2023-03-25T18:04:49.647Z,96722.85
2023-03-25T18:07:16.071Z,96725.04
2023-03-25T18:09:42.534Z,96726.69
2023-03-25T18:12:10.753Z,96725.54
2023-03-25T18:14:37.173Z,96722.76
2023-03-25T18:17:03.749Z,96721.98
2023-03-25T18:19:30.295Z,96723.02
2023-03-25T18:21:57.815Z,96721.03
2023-03-25T18:24:27.678Z,96721.61
2023-03-25T18:26:54.562Z,96722.17
2023-03-25T18:29:23.137Z,96724.81
2023-03-25T18:31:50.306Z,96722.52
2023-03-25T18:34:17.207Z,96721.25
2023-03-25T18:36:44.313Z,96716.39
2023-03-25T18:39:14.932Z,96714.73
2023-03-25T18:41:41.448Z,96715.80
2023-03-25T18:44:08.036Z,96709.42
2023-03-25T18:46:35.508Z,96707.83
2023-03-25T18:49:02.562Z,96712.52
2023-03-25T18:51:29.241Z,96715.67
2023-03-25T18:53:55.671Z,96718.45
2023-03-25T18:56:22.573Z,96724.63
2023-03-25T18:58:48.952Z,96721.82
2023-03-25T19:01:15.792Z,96721.67
2023-03-25T19:03:42.362Z,96719.55
2023-03-25T19:06:10.363Z,96723.29
2023-03-25T19:08:37.035Z,96725.55
2023-03-25T19:11:16.391Z,96723.26
2023-03-25T19:13:46.131Z,96724.67
2023-03-25T19:16:12.865Z,96729.13
2023-03-25T19:18:39.426Z,96731.23
2023-03-25T19:21:06.130Z,96733.41
2023-03-25T19:23:32.756Z,96729.64
2023-03-25T19:26:00.039Z,96728.27
2023-03-25T19:28:27.752Z,96728.89
2023-03-25T19:30:59.088Z,96727.72
2023-03-25T19:33:25.712Z,96726.17
2023-03-25T19:35:54.272Z,96728.88
2023-03-25T19:38:21.781Z,96726.38
2023-03-25T19:40:54.554Z,96721.16
2023-03-25T19:43:21.050Z,96720.89
2023-03-25T19:45:47.626Z,96715.48
2023-03-25T19:48:14.035Z,96711.98
2023-03-25T19:50:40.819Z,96712.13
2023-03-25T19:53:07.600Z,96717.01
2023-03-25T19:55:33.935Z,96712.61
2023-03-25T19:58:00.432Z,96711.48
2023-03-25T20:00:28.895Z,96712.33
2023-03-25T20:02:58.176Z,96714.39
2023-03-25T20:05:25.102Z,96710.23
2023-03-25T20:07:51.964Z,96713.58
2023-03-25T20:10:20.358Z,96715.22
2023-03-25T20:12:47.406Z,96719.05
2023-03-25T20:15:14.338Z,96716.50
2023-03-25T20:17:41.053Z,96719.34
2023-03-25T20:20:09.358Z,96719.64
2023-03-25T20:22:36.381Z,96720.05
2023-03-25T20:25:03.936Z,96717.70
2023-03-25T20:27:30.669Z,96721.02
2023-03-25T20:29:57.467Z,96719.02
2023-03-25T20:32:34.010Z,96721.12
2023-03-25T20:35:07.704Z,96723.20
2023-03-25T20:37:37.137Z,96722.71
2023-03-25T20:40:04.662Z,96721.68
2023-03-25T20:42:31.856Z,96717.52
2023-03-25T20:45:01.790Z,96715.38
2023-03-25T20:47:28.236Z,96717.48
2023-03-25T20:49:54.648Z,96721.49
2023-03-25T20:52:24.700Z,96721.08
2023-03-25T20:54:54.095Z,96723.52
2023-03-25T20:57:21.580Z,96724.80
2023-03-25T20:59:48.238Z,96726.14
2023-03-25T21:02:14.729Z,96734.65
2023-03-25T21:04:41.112Z,96731.69
2023-03-25T21:07:07.592Z,96734.02
2023-03-25T21:09:33.964Z,96739.71
2023-03-25T21:12:00.673Z,96744.63
2023-03-25T21:14:28.052Z,96744.61
2023-03-25T21:16:54.786Z,96741.65
2023-03-25T21:19:21.711Z,96740.72
2023-03-25T21:21:48.153Z,96745.06
2023-03-25T21:24:16.924Z,96743.00
2023-03-25T21:26:43.979Z,96746.02
2023-03-25T21:29:10.393Z,96743.44
2023-03-25T21:31:36.800Z,96747.75
2023-03-25T21:34:03.714Z,96748.75
2023-03-25T21:36:30.235Z,96750.77
2023-03-25T21:38:57.889Z,96744.41
2023-03-25T21:41:24.751Z,96747.46
2023-03-25T21:43:51.478Z,96747.47
2023-03-25T21:46:18.220Z,96745.55
2023-03-25T21:48:44.741Z,96746.47
2023-03-25T21:51:11.704Z,96752.53
2023-03-25T21:53:38.048Z,96752.70
2023-03-25T21:56:04.564Z,96757.55
2023-03-25T21:58:32.444Z,96759.48
2023-03-25T22:00:59.773Z,96764.40
2023-03-25T22:03:27.484Z,96768.05
2023-03-25T22:05:54.461Z,96766.76
2023-03-25T22:08:21.093Z,96767.88
2023-03-25T22:10:47.813Z,96770.61
2023-03-25T22:13:14.119Z,96768.30
2023-03-25T22:15:40.454Z,96768.66
2023-03-25T22:18:07.044Z,96765.90
2023-03-25T22:20:33.555Z,96766.75
2023-03-25T22:22:59.874Z,96763.16
2023-03-25T22:25:26.350Z,96768.39
2023-03-25T22:27:53.000Z,96765.10
2023-03-25T22:30:19.346Z,96764.33
2023-03-25T22:32:45.808Z,96761.67
2023-03-25T22:35:12.678Z,96763.63
2023-03-25T22:37:39.458Z,96772.98
2023-03-25T22:40:06.738Z,96772.08
2023-03-25T22:42:33.093Z,96772.19
2023-03-25T22:44:59.406Z,96770.29
2023-03-25T22:47:25.907Z,96772.76
2023-03-25T22:49:52.305Z,96772.52
2023-03-25T22:52:18.583Z,96773.25
2023-03-25T22:54:44.935Z,96771.81
2023-03-25T22:57:11.426Z,96770.64
2023-03-25T22:59:37.874Z,96767.30
2023-03-25T23:02:04.209Z,96768.00
2023-03-25T23:04:30.648Z,96771.24
2023-03-25T23:07:07.311Z,96775.59
2023-03-25T23:09:35.248Z,96774.59
2023-03-25T23:12:01.599Z,96774.49
2023-03-25T23:14:27.932Z,96771.84
2023-03-25T23:16:54.270Z,96775.55
2023-03-25T23:19:20.708Z,96778.15
2023-03-25T23:21:47.039Z,96772.17
2023-03-25T23:24:13.417Z,96774.42
2023-03-25T23:26:40.292Z,96770.02
2023-03-25T23:29:08.110Z,96773.39
2023-03-25T23:31:35.430Z,96771.60
2023-03-25T23:34:04.104Z,96770.15
2023-03-25T23:36:31.212Z,96773.45
2023-03-25T23:38:57.530Z,96776.64
2023-03-25T23:41:24.021Z,96773.70
2023-03-25T23:43:51.214Z,96777.87
2023-03-25T23:46:18.553Z,96774.72
2023-03-25T23:48:45.126Z,96775.14
2023-03-25T23:51:12.965Z,96772.02
2023-03-25T23:53:40.113Z,96769.40
2023-03-25T23:56:06.689Z,96770.69
2023-03-25T23:58:33.381Z,96773.90
